sensor_id;sensor_type;location;lat;lon;timestamp;pressure;altitude;pressure_sealevel;temperature;humidity
51123;BME280;37162;41.724;13.346;2023-01-31T00:02:25;96658.06;;;15.39;56.75
51123;BME280;37162;41.724;13.346;2023-01-31T00:04:50;96664.16;;;15.46;56.51
51123;BME280;37162;41.724;13.346;2023-01-31T00:07:15;96669.50;;;15.46;56.45
51123;BME280;37162;41.724;13.346;2023-01-31T00:09:41;96674.03;;;15.46;56.48
51123;BME280;37162;41.724;13.346;2023-01-31T00:12:06;96664.81;;;15.42;56.45
51123;BME280;37162;41.724;13.346;2023-01-31T00:14:32;96664.38;;;15.45;56.29
51123;BME280;37162;41.724;13.346;2023-01-31T00:16:57;96662.53;;;15.45;56.41
51123;BME280;37162;41.724;13.346;2023-01-31T00:19:22;96672.41;;;15.45;56.15
51123;BME280;37162;41.724;13.346;2023-01-31T00:21:48;96668.94;;;15.44;56.26
51123;BME280;37162;41.724;13.346;2023-01-31T00:24:13;96667.31;;;15.43;56.21
51123;BME280;37162;41.724;13.346;2023-01-31T00:26:39;96665.28;;;15.39;56.14
51123;BME280;37162;41.724;13.346;2023-01-31T00:29:05;96666.69;;;15.41;56.24
51123;BME280;37162;41.724;13.346;2023-01-31T00:31:31;96657.59;;;15.42;56.10
51123;BME280;37162;41.724;13.346;2023-01-31T00:33:58;96649.56;;;15.42;56.08
51123;BME280;37162;41.724;13.346;2023-01-31T00:36:26;96654.13;;;15.42;55.99
51123;BME280;37162;41.724;13.346;2023-01-31T00:38:55;96634.19;;;15.38;56.21
51123;BME280;37162;41.724;13.346;2023-01-31T00:41:22;96638.28;;;15.40;56.20
51123;BME280;37162;41.724;13.346;2023-01-31T00:43:48;96643.28;;;15.37;56.24
51123;BME280;37162;41.724;13.346;2023-01-31T00:46:14;96639.34;;;15.39;56.06
51123;BME280;37162;41.724;13.346;2023-01-31T00:48:40;96633.16;;;15.39;56.33
51123;BME280;37162;41.724;13.346;2023-01-31T00:51:05;96634.00;;;15.39;56.28
51123;BME280;37162;41.724;13.346;2023-01-31T00:53:31;96646.19;;;15.35;56.46
51123;BME280;37162;41.724;13.346;2023-01-31T00:56:09;96655.41;;;15.39;56.48
51123;BME280;37162;41.724;13.346;2023-01-31T00:58:35;96652.13;;;15.37;56.64
51123;BME280;37162;41.724;13.346;2023-01-31T01:01:08;96659.09;;;15.38;56.42
51123;BME280;37162;41.724;13.346;2023-01-31T01:03:34;96652.59;;;15.34;56.63
51123;BME280;37162;41.724;13.346;2023-01-31T01:06:00;96661.78;;;15.38;56.86
51123;BME280;37162;41.724;13.346;2023-01-31T01:08:27;96658.28;;;15.38;56.44
51123;BME280;37162;41.724;13.346;2023-01-31T01:10:52;96655.59;;;15.38;56.38
51123;BME280;37162;41.724;13.346;2023-01-31T01:13:17;96660.97;;;15.38;56.33
51123;BME280;37162;41.724;13.346;2023-01-31T01:15:43;96666.31;;;15.38;56.34
51123;BME280;37162;41.724;13.346;2023-01-31T01:18:08;96662.63;;;15.39;56.48
51123;BME280;37162;41.724;13.346;2023-01-31T01:20:34;96659.94;;;15.39;56.20
51123;BME280;37162;41.724;13.346;2023-01-31T01:23:00;96640.47;;;15.31;56.40
51123;BME280;37162;41.724;13.346;2023-01-31T01:25:26;96653.75;;;15.38;56.21
51123;BME280;37162;41.724;13.346;2023-01-31T01:27:51;96664.44;;;15.38;56.34
51123;BME280;37162;41.724;13.346;2023-01-31T01:30:17;96660.97;;;15.38;56.57
51123;BME280;37162;41.724;13.346;2023-01-31T01:32:42;96658.28;;;15.38;56.30
51123;BME280;37162;41.724;13.346;2023-01-31T01:35:08;96663.06;;;15.36;56.23
51123;BME280;37162;41.724;13.346;2023-01-31T01:37:34;96667.13;;;15.38;56.16
51123;BME280;37162;41.724;13.346;2023-01-31T01:40:00;96666.31;;;15.38;56.27
51123;BME280;37162;41.724;13.346;2023-01-31T01:42:26;96661.06;;;15.31;56.23
51123;BME280;37162;41.724;13.346;2023-01-31T01:47:22;96688.78;;;15.37;56.45
51123;BME280;37162;41.724;13.346;2023-01-31T01:49:56;96684.47;;;15.36;56.20
51123;BME280;37162;41.724;13.346;2023-01-31T01:52:24;96682.59;;;15.36;56.48
51123;BME280;37162;41.724;13.346;2023-01-31T01:54:56;96687.59;;;15.32;56.54
51123;BME280;37162;41.724;13.346;2023-01-31T01:57:29;96688.53;;;15.38;56.64
51123;BME280;37162;41.724;13.346;2023-01-31T02:00:27;96688.53;;;15.38;56.73
51123;BME280;37162;41.724;13.346;2023-01-31T02:02:57;96674.81;;;15.34;56.83
51123;BME280;37162;41.724;13.346;2023-01-31T02:05:27;96684.47;;;15.36;56.87
51123;BME280;37162;41.724;13.346;2023-01-31T02:07:55;96694.75;;;15.39;56.80
51123;BME280;37162;41.724;13.346;2023-01-31T02:10:29;96693.91;;;15.38;56.70
51123;BME280;37162;41.724;13.346;2023-01-31T02:12:56;96692.28;;;15.37;56.59
51123;BME280;37162;41.724;13.346;2023-01-31T02:15:22;96693.09;;;15.38;56.44
51123;BME280;37162;41.724;13.346;2023-01-31T02:17:48;96672.00;;;15.29;56.51
51123;BME280;37162;41.724;13.346;2023-01-31T02:20:32;96691.22;;;15.38;56.36
51123;BME280;37162;41.724;13.346;2023-01-31T02:26:09;96678.88;;;15.37;56.61
51123;BME280;37162;41.724;13.346;2023-01-31T02:42:24;96655.25;;;15.34;56.32
51123;BME280;37162;41.724;13.346;2023-01-31T02:45:06;96658.16;;;15.32;56.34
51123;BME280;37162;41.724;13.346;2023-01-31T02:53:05;96673.63;;;15.30;56.35
51123;BME280;37162;41.724;13.346;2023-01-31T02:55:43;96670.13;;;15.30;56.16
51123;BME280;37162;41.724;13.346;2023-01-31T02:58:35;96677.34;;;15.29;56.42
51123;BME280;37162;41.724;13.346;2023-01-31T03:01:02;96680.84;;;15.30;56.46
51123;BME280;37162;41.724;13.346;2023-01-31T03:03:33;96687.00;;;15.30;56.34
51123;BME280;37162;41.724;13.346;2023-01-31T03:09:13;96683.28;;;15.31;56.73
51123;BME280;37162;41.724;13.346;2023-01-31T03:14:43;96704.69;;;15.31;57.03
51123;BME280;37162;41.724;13.346;2023-01-31T03:17:29;96710.03;;;15.31;56.92
51123;BME280;37162;41.724;13.346;2023-01-31T03:22:37;96713.53;;;15.32;56.63
51123;BME280;37162;41.724;13.346;2023-01-31T03:25:06;96706.56;;;15.31;56.42
51123;BME280;37162;41.724;13.346;2023-01-31T03:27:33;96705.50;;;15.32;56.66
51123;BME280;37162;41.724;13.346;2023-01-31T03:30:12;96701.28;;;15.24;56.50
51123;BME280;37162;41.724;13.346;2023-01-31T03:32:51;96714.59;;;15.31;56.52
51123;BME280;37162;41.724;13.346;2023-01-31T03:35:20;96705.59;;;15.25;56.38
51123;BME280;37162;41.724;13.346;2023-01-31T03:37:59;96701.19;;;15.31;56.42
51123;BME280;37162;41.724;13.346;2023-01-31T03:40:40;96706.19;;;15.27;56.39
51123;BME280;37162;41.724;13.346;2023-01-31T03:45:59;96703.06;;;15.30;56.43
51123;BME280;37162;41.724;13.346;2023-01-31T03:48:30;96722.84;;;15.29;56.49
51123;BME280;37162;41.724;13.346;2023-01-31T03:50:59;96705.94;;;15.29;56.29
51123;BME280;37162;41.724;13.346;2023-01-31T03:53:35;96709.47;;;15.29;56.27
51123;BME280;37162;41.724;13.346;2023-01-31T03:56:15;96713.78;;;15.30;56.20
51123;BME280;37162;41.724;13.346;2023-01-31T03:58:47;96710.72;;;15.27;56.29
51123;BME280;37162;41.724;13.346;2023-01-31T04:01:16;96709.47;;;15.29;56.33
51123;BME280;37162;41.724;13.346;2023-01-31T04:03:56;96706.41;;;15.26;56.36
51123;BME280;37162;41.724;13.346;2023-01-31T04:06:22;96709.47;;;15.29;56.75
51123;BME280;37162;41.724;13.346;2023-01-31T04:08:48;96714.44;;;15.26;56.89
51123;BME280;37162;41.724;13.346;2023-01-31T04:11:14;96719.13;;;15.30;56.86
51123;BME280;37162;41.724;13.346;2023-01-31T04:13:40;96721.84;;;15.24;56.92
51123;BME280;37162;41.724;13.346;2023-01-31T04:16:06;96711.28;;;15.29;56.76
51123;BME280;37162;41.724;13.346;2023-01-31T04:18:32;96721.81;;;15.30;56.74
51123;BME280;37162;41.724;13.346;2023-01-31T04:20:58;96710.28;;;15.30;56.75
51123;BME280;37162;41.724;13.346;2023-01-31T04:23:23;96705.94;;;15.29;57.01
51123;BME280;37162;41.724;13.346;2023-01-31T04:25:52;96722.84;;;15.29;56.66
51123;BME280;37162;41.724;13.346;2023-01-31T04:28:17;96730.03;;;15.29;56.55
51123;BME280;37162;41.724;13.346;2023-01-31T04:30:42;96733.75;;;15.28;56.38
51123;BME280;37162;41.724;13.346;2023-01-31T04:33:08;96739.09;;;15.28;56.37
51123;BME280;37162;41.724;13.346;2023-01-31T04:35:33;96728.63;;;15.26;56.23
51123;BME280;37162;41.724;13.346;2023-01-31T04:37:59;96743.66;;;15.27;56.09
51123;BME280;37162;41.724;13.346;2023-01-31T04:40:24;96737.47;;;15.27;56.29
51123;BME280;37162;41.724;13.346;2023-01-31T04:42:50;96736.75;;;15.20;56.13
51123;BME280;37162;41.724;13.346;2023-01-31T04:45:15;96729.16;;;15.17;56.12
51123;BME280;37162;41.724;13.346;2023-01-31T04:47:41;96753.16;;;15.23;56.08
51123;BME280;37162;41.724;13.346;2023-01-31T04:50:07;96754.63;;;15.19;56.36
51123;BME280;37162;41.724;13.346;2023-01-31T04:52:32;96770.03;;;15.24;56.08
51123;BME280;37162;41.724;13.346;2023-01-31T04:54:57;96781.78;;;15.23;56.33
51123;BME280;37162;41.724;13.346;2023-01-31T04:57:23;96767.59;;;15.22;56.05
51123;BME280;37162;41.724;13.346;2023-01-31T04:59:48;96769.44;;;15.22;56.03
51123;BME280;37162;41.724;13.346;2023-01-31T05:02:14;96763.72;;;15.18;56.00
51123;BME280;37162;41.724;13.346;2023-01-31T05:04:40;96764.31;;;15.20;56.10
51123;BME280;37162;41.724;13.346;2023-01-31T05:07:05;96763.28;;;15.21;56.03
51123;BME280;37162;41.724;13.346;2023-01-31T05:09:31;96770.50;;;15.21;56.21
51123;BME280;37162;41.724;13.346;2023-01-31T05:11:56;96776.44;;;15.23;56.17
51123;BME280;37162;41.724;13.346;2023-01-31T05:14:22;96772.56;;;15.19;56.09
51123;BME280;37162;41.724;13.346;2023-01-31T05:16:47;96770.69;;;15.19;56.38
51123;BME280;37162;41.724;13.346;2023-01-31T05:19:16;96769.22;;;15.23;56.41
51123;BME280;37162;41.724;13.346;2023-01-31T05:21:41;96790.63;;;15.23;56.45
51123;BME280;37162;41.724;13.346;2023-01-31T05:24:23;96766.78;;;15.22;56.32
51123;BME280;37162;41.724;13.346;2023-01-31T05:26:49;96777.03;;;15.25;56.51
51123;BME280;37162;41.724;13.346;2023-01-31T05:29:17;96774.38;;;15.25;56.52
51123;BME280;37162;41.724;13.346;2023-01-31T05:31:42;96780.72;;;15.24;56.48
51123;BME280;37162;41.724;13.346;2023-01-31T05:34:08;96797.63;;;15.24;56.53
51123;BME280;37162;41.724;13.346;2023-01-31T05:36:36;96794.97;;;15.24;56.34
51123;BME280;37162;41.724;13.346;2023-01-31T05:39:01;96783.41;;;15.24;56.59
51123;BME280;37162;41.724;13.346;2023-01-31T05:41:26;96790.44;;;15.25;56.34
51123;BME280;37162;41.724;13.346;2023-01-31T05:43:52;96779.75;;;15.18;56.47
51123;BME280;37162;41.724;13.346;2023-01-31T05:46:17;96793.09;;;15.25;56.25
51123;BME280;37162;41.724;13.346;2023-01-31T05:48:43;96787.78;;;15.18;56.13
51123;BME280;37162;41.724;13.346;2023-01-31T05:51:08;96796.78;;;15.24;56.24
51123;BME280;37162;41.724;13.346;2023-01-31T05:53:33;96795.97;;;15.23;56.20
51123;BME280;37162;41.724;13.346;2023-01-31T05:55:59;96793.53;;;15.22;56.21
51123;BME280;37162;41.724;13.346;2023-01-31T05:58:24;96789.28;;;15.14;56.29
51123;BME280;37162;41.724;13.346;2023-01-31T06:00:54;96796.63;;;15.19;56.09
51123;BME280;37162;41.724;13.346;2023-01-31T06:03:20;96799.13;;;15.20;56.35
51123;BME280;37162;41.724;13.346;2023-01-31T06:05:46;96805.47;;;15.19;56.28
51123;BME280;37162;41.724;13.346;2023-01-31T06:08:11;96816.19;;;15.19;56.36
51123;BME280;37162;41.724;13.346;2023-01-31T06:10:38;96810.84;;;15.19;56.27
51123;BME280;37162;41.724;13.346;2023-01-31T06:13:03;96811.88;;;15.18;56.27
51123;BME280;37162;41.724;13.346;2023-01-31T06:15:29;96815.38;;;15.19;56.38
51123;BME280;37162;41.724;13.346;2023-01-31T06:17:54;96813.75;;;15.18;56.68
51123;BME280;37162;41.724;13.346;2023-01-31T06:20:20;96810.25;;;15.17;56.53
51123;BME280;37162;41.724;13.346;2023-01-31T06:22:45;96813.19;;;15.09;56.37
51123;BME280;37162;41.724;13.346;2023-01-31T06:25:11;96811.06;;;15.18;56.39
51123;BME280;37162;41.724;13.346;2023-01-31T06:27:36;96812.53;;;15.14;56.31
51123;BME280;37162;41.724;13.346;2023-01-31T06:30:02;96829.63;;;15.13;56.49
51123;BME280;37162;41.724;13.346;2023-01-31T06:32:27;96834.34;;;15.17;56.47
51123;BME280;37162;41.724;13.346;2023-01-31T06:34:53;96843.41;;;15.16;56.44
51123;BME280;37162;41.724;13.346;2023-01-31T06:37:18;96846.91;;;15.17;56.31
51123;BME280;37162;41.724;13.346;2023-01-31T06:39:43;96858.41;;;15.17;56.11
51123;BME280;37162;41.724;13.346;2023-01-31T06:42:09;96843.41;;;15.16;56.16
51123;BME280;37162;41.724;13.346;2023-01-31T06:44:34;96854.09;;;15.16;56.38
51123;BME280;37162;41.724;13.346;2023-01-31T06:47:02;96847.78;;;15.11;56.09
51123;BME280;37162;41.724;13.346;2023-01-31T06:49:27;96862.13;;;15.16;56.22
51123;BME280;37162;41.724;13.346;2023-01-31T06:51:53;96854.31;;;15.15;56.03
51123;BME280;37162;41.724;13.346;2023-01-31T06:54:18;96848.75;;;15.16;56.22
51123;BME280;37162;41.724;13.346;2023-01-31T06:56:44;96853.94;;;15.11;56.28
51123;BME280;37162;41.724;13.346;2023-01-31T06:59:09;96864.00;;;15.16;56.46
51123;BME280;37162;41.724;13.346;2023-01-31T07:01:34;96863.84;;;15.11;56.41
51123;BME280;37162;41.724;13.346;2023-01-31T07:04:00;96875.53;;;15.16;56.37
51123;BME280;37162;41.724;13.346;2023-01-31T07:06:25;96868.31;;;15.17;56.42
51123;BME280;37162;41.724;13.346;2023-01-31T07:08:51;96873.44;;;15.18;56.36
51123;BME280;37162;41.724;13.346;2023-01-31T07:11:16;96866.22;;;15.19;56.49
51123;BME280;37162;41.724;13.346;2023-01-31T07:13:42;96875.91;;;15.20;56.49
51123;BME280;37162;41.724;13.346;2023-01-31T07:16:10;96869.72;;;15.19;56.36
51123;BME280;37162;41.724;13.346;2023-01-31T07:18:35;96865.78;;;15.22;56.09
51123;BME280;37162;41.724;13.346;2023-01-31T07:21:01;96874.91;;;15.14;56.08
51123;BME280;37162;41.724;13.346;2023-01-31T07:23:26;96886.78;;;15.25;56.17
51123;BME280;37162;41.724;13.346;2023-01-31T07:25:52;96876.50;;;15.22;56.19
51123;BME280;37162;41.724;13.346;2023-01-31T07:28:17;96890.28;;;15.25;56.23
51123;BME280;37162;41.724;13.346;2023-01-31T07:30:42;96895.31;;;15.33;56.26
51123;BME280;37162;41.724;13.346;2023-01-31T07:33:10;96902.13;;;15.36;56.62
51123;BME280;37162;41.724;13.346;2023-01-31T07:35:36;96912.59;;;15.38;56.36
51123;BME280;37162;41.724;13.346;2023-01-31T07:38:01;96915.88;;;15.40;56.39
51123;BME280;37162;41.724;13.346;2023-01-31T07:40:27;96920.78;;;15.43;56.25
51123;BME280;37162;41.724;13.346;2023-01-31T07:42:57;96907.41;;;15.43;56.30
51123;BME280;37162;41.724;13.346;2023-01-31T07:45:23;96923.41;;;15.49;56.12
51123;BME280;37162;41.724;13.346;2023-01-31T07:47:48;96924.00;;;15.51;55.64
51123;BME280;37162;41.724;13.346;2023-01-31T07:50:13;96945.81;;;15.55;55.45
51123;BME280;37162;41.724;13.346;2023-01-31T07:52:39;96936.56;;;15.51;55.08
51123;BME280;37162;41.724;13.346;2023-01-31T07:55:05;96942.88;;;15.63;54.57
51123;BME280;37162;41.724;13.346;2023-01-31T07:57:31;96956.69;;;15.67;54.49
51123;BME280;37162;41.724;13.346;2023-01-31T07:59:56;96954.16;;;15.72;54.51
51123;BME280;37162;41.724;13.346;2023-01-31T08:02:21;96956.38;;;15.75;54.34
51123;BME280;37162;41.724;13.346;2023-01-31T08:05:07;96969.94;;;15.80;54.34
51123;BME280;37162;41.724;13.346;2023-01-31T08:07:33;96968.91;;;15.81;54.57
51123;BME280;37162;41.724;13.346;2023-01-31T08:09:59;96981.66;;;15.86;54.43
51123;BME280;37162;41.724;13.346;2023-01-31T08:12:24;96985.72;;;15.88;54.35
51123;BME280;37162;41.724;13.346;2023-01-31T08:14:50;96986.69;;;15.94;54.44
51123;BME280;37162;41.724;13.346;2023-01-31T08:17:15;96992.22;;;15.99;54.29
51123;BME280;37162;41.724;13.346;2023-01-31T08:19:41;96992.03;;;16.00;54.35
51123;BME280;37162;41.724;13.346;2023-01-31T08:22:06;97002.28;;;16.03;54.37
51123;BME280;37162;41.724;13.346;2023-01-31T08:24:32;97002.66;;;16.07;54.21
51123;BME280;37162;41.724;13.346;2023-01-31T08:26:58;97000.56;;;16.09;54.10
51123;BME280;37162;41.724;13.346;2023-01-31T08:29:25;96998.94;;;16.08;54.05
51123;BME280;37162;41.724;13.346;2023-01-31T08:31:51;97002.81;;;16.12;54.10
51123;BME280;37162;41.724;13.346;2023-01-31T08:34:16;97013.84;;;16.22;54.03
51123;BME280;37162;41.724;13.346;2023-01-31T08:36:42;97037.53;;;16.25;54.07
51123;BME280;37162;41.724;13.346;2023-01-31T08:39:08;97026.00;;;16.25;54.08
51123;BME280;37162;41.724;13.346;2023-01-31T08:41:35;97028.41;;;16.33;53.93
51123;BME280;37162;41.724;13.346;2023-01-31T08:44:01;97050.44;;;16.35;54.31
51123;BME280;37162;41.724;13.346;2023-01-31T08:46:30;97031.22;;;16.38;54.14
51123;BME280;37162;41.724;13.346;2023-01-31T08:48:56;97020.69;;;16.36;53.93
51123;BME280;37162;41.724;13.346;2023-01-31T08:51:22;97028.69;;;16.43;53.70
51123;BME280;37162;41.724;13.346;2023-01-31T08:53:47;97032.19;;;16.44;53.71
51123;BME280;37162;41.724;13.346;2023-01-31T08:56:14;97031.38;;;16.43;53.27
51123;BME280;37162;41.724;13.346;2023-01-31T08:58:41;97058.56;;;16.47;53.27
51123;BME280;37162;41.724;13.346;2023-01-31T09:01:18;97042.25;;;16.48;53.39
51123;BME280;37162;41.724;13.346;2023-01-31T09:03:44;97048.44;;;16.49;53.42
51123;BME280;37162;41.724;13.346;2023-01-31T09:06:14;97058.94;;;16.50;53.32
51123;BME280;37162;41.724;13.346;2023-01-31T09:08:39;97060.41;;;16.46;50.35
51123;BME280;37162;41.724;13.346;2023-01-31T09:11:05;97064.53;;;16.49;49.33
51123;BME280;37162;41.724;13.346;2023-01-31T09:13:32;97062.81;;;16.54;50.31
51123;BME280;37162;41.724;13.346;2023-01-31T09:15:59;97077.66;;;16.57;51.38
51123;BME280;37162;41.724;13.346;2023-01-31T09:18:25;97073.91;;;16.58;51.82
51123;BME280;37162;41.724;13.346;2023-01-31T09:20:51;97100.31;;;16.61;52.51
51123;BME280;37162;41.724;13.346;2023-01-31T09:23:18;97100.88;;;16.63;52.98
51123;BME280;37162;41.724;13.346;2023-01-31T09:25:50;97099.66;;;16.66;53.03
51123;BME280;37162;41.724;13.346;2023-01-31T09:28:16;97096.97;;;16.66;53.18
51123;BME280;37162;41.724;13.346;2023-01-31T09:30:41;97105.22;;;16.64;52.16
51123;BME280;37162;41.724;13.346;2023-01-31T20:26:04;97337.69;;;15.16;57.88
51123;BME280;37162;41.724;13.346;2023-01-31T20:28:29;97327.78;;;15.09;57.73
51123;BME280;37162;41.724;13.346;2023-01-31T20:31:04;97335.19;;;15.14;57.77
51123;BME280;37162;41.724;13.346;2023-01-31T20:33:30;97335.41;;;15.19;57.75
51123;BME280;37162;41.724;13.346;2023-01-31T20:35:56;97343.25;;;15.21;57.70
51123;BME280;37162;41.724;13.346;2023-01-31T20:38:21;97333.13;;;15.23;57.68
51123;BME280;37162;41.724;13.346;2023-01-31T20:40:48;97318.13;;;15.15;57.61
51123;BME280;37162;41.724;13.346;2023-01-31T20:43:14;97333.78;;;15.25;57.75
51123;BME280;37162;41.724;13.346;2023-01-31T20:45:40;97321.19;;;15.25;57.75
51123;BME280;37162;41.724;13.346;2023-01-31T20:48:05;97322.84;;;15.26;57.77
51123;BME280;37162;41.724;13.346;2023-01-31T20:50:30;97320.16;;;15.26;57.84
51123;BME280;37162;41.724;13.346;2023-01-31T20:52:56;97323.66;;;15.27;57.75
51123;BME280;37162;41.724;13.346;2023-01-31T20:55:22;97318.09;;;15.28;57.70
51123;BME280;37162;41.724;13.346;2023-01-31T20:57:47;97308.84;;;15.24;57.67
51123;BME280;37162;41.724;13.346;2023-01-31T21:00:18;97318.72;;;15.30;57.76
51123;BME280;37162;41.724;13.346;2023-01-31T21:02:45;97324.06;;;15.30;57.62
51123;BME280;37162;41.724;13.346;2023-01-31T21:05:11;97328.16;;;15.33;57.58
51123;BME280;37162;41.724;13.346;2023-01-31T21:07:37;97332.72;;;15.32;57.60
51123;BME280;37162;41.724;13.346;2023-01-31T21:10:03;97326.13;;;15.35;57.49
51123;BME280;37162;41.724;13.346;2023-01-31T21:12:29;97335.59;;;15.38;57.52
51123;BME280;37162;41.724;13.346;2023-01-31T21:14:54;97336.22;;;15.40;57.67
51123;BME280;37162;41.724;13.346;2023-01-31T21:17:20;97341.34;;;15.41;57.69
51123;BME280;37162;41.724;13.346;2023-01-31T21:19:46;97345.66;;;15.42;57.94
51123;BME280;37162;41.724;13.346;2023-01-31T21:22:12;97330.66;;;15.34;57.85
51123;BME280;37162;41.724;13.346;2023-01-31T21:24:37;97354.94;;;15.46;57.73
51123;BME280;37162;41.724;13.346;2023-01-31T21:27:03;97356.78;;;15.46;57.47
51123;BME280;37162;41.724;13.346;2023-01-31T21:29:28;97344.84;;;15.42;57.19
51123;BME280;37162;41.724;13.346;2023-01-31T21:31:54;97356.78;;;15.46;56.98
51123;BME280;37162;41.724;13.346;2023-01-31T21:34:22;97359.88;;;15.49;57.06
51123;BME280;37162;41.724;13.346;2023-01-31T21:36:53;97354.53;;;15.49;56.90
51123;BME280;37162;41.724;13.346;2023-01-31T21:39:19;97353.50;;;15.50;56.78
51123;BME280;37162;41.724;13.346;2023-01-31T21:41:44;97344.63;;;15.50;56.87
51123;BME280;37162;41.724;13.346;2023-01-31T21:44:28;97355.13;;;15.51;56.79
51123;BME280;37162;41.724;13.346;2023-01-31T21:46:54;97352.44;;;15.51;56.77
51123;BME280;37162;41.724;13.346;2023-01-31T21:49:19;97339.50;;;15.42;56.64
51123;BME280;37162;41.724;13.346;2023-01-31T21:51:45;97353.28;;;15.52;56.59
51123;BME280;37162;41.724;13.346;2023-01-31T21:54:10;97342.56;;;15.52;56.68
51123;BME280;37162;41.724;13.346;2023-01-31T21:56:36;97342.56;;;15.52;56.77
51123;BME280;37162;41.724;13.346;2023-01-31T21:59:01;97342.38;;;15.53;56.46
51123;BME280;37162;41.724;13.346;2023-01-31T22:01:32;97338.03;;;15.52;56.43
51123;BME280;37162;41.724;13.346;2023-01-31T22:03:58;97335.56;;;15.51;56.33
51123;BME280;37162;41.724;13.346;2023-01-31T22:06:26;97324.66;;;15.46;56.39
51123;BME280;37162;41.724;13.346;2023-01-31T22:08:54;97324.25;;;15.49;56.47
51123;BME280;37162;41.724;13.346;2023-01-31T22:11:19;97317.25;;;15.41;56.33
51123;BME280;37162;41.724;13.346;2023-01-31T22:13:47;97334.34;;;15.53;56.46
51123;BME280;37162;41.724;13.346;2023-01-31T22:16:14;97333.69;;;15.51;56.50
51123;BME280;37162;41.724;13.346;2023-01-31T22:18:41;97333.28;;;15.54;56.52
51123;BME280;37162;41.724;13.346;2023-01-31T22:23:36;97327.75;;;15.49;56.65
51123;BME280;37162;41.724;13.346;2023-01-31T22:26:09;97338.44;;;15.56;56.62
51123;BME280;37162;41.724;13.346;2023-01-31T22:28:36;97328.78;;;15.48;56.55
51123;BME280;37162;41.724;13.346;2023-01-31T22:31:03;97340.28;;;15.55;56.67
51123;BME280;37162;41.724;13.346;2023-01-31T22:33:30;97338.44;;;15.56;56.48
51123;BME280;37162;41.724;13.346;2023-01-31T22:35:56;97342.16;;;15.55;56.28
51123;BME280;37162;41.724;13.346;2023-01-31T22:38:22;97334.75;;;15.50;56.12
51123;BME280;37162;41.724;13.346;2023-01-31T22:40:48;97338.66;;;15.54;56.21
51123;BME280;37162;41.724;13.346;2023-01-31T22:43:18;97337.19;;;15.52;56.30
51123;BME280;37162;41.724;13.346;2023-01-31T22:45:51;97330.63;;;15.48;56.36
51123;BME280;37162;41.724;13.346;2023-01-31T22:48:17;97339.88;;;15.52;56.60
51123;BME280;37162;41.724;13.346;2023-01-31T22:50:43;97330.84;;;15.46;56.36
51123;BME280;37162;41.724;13.346;2023-01-31T22:53:10;97329.19;;;15.45;56.49
51123;BME280;37162;41.724;13.346;2023-01-31T22:55:41;97343.59;;;15.51;56.54
51123;BME280;37162;41.724;13.346;2023-01-31T22:58:08;97336.59;;;15.50;56.53
51123;BME280;37162;41.724;13.346;2023-01-31T23:00:35;97355.34;;;15.50;56.52
51123;BME280;37162;41.724;13.346;2023-01-31T23:03:01;97353.69;;;15.49;56.42
51123;BME280;37162;41.724;13.346;2023-01-31T23:05:27;97341.13;;;15.43;56.40
51123;BME280;37162;41.724;13.346;2023-01-31T23:07:54;97353.91;;;15.47;56.34
51123;BME280;37162;41.724;13.346;2023-01-31T23:10:19;97342.19;;;15.48;56.39
51123;BME280;37162;41.724;13.346;2023-01-31T23:12:45;97331.66;;;15.47;56.38
51123;BME280;37162;41.724;13.346;2023-01-31T23:15:12;97339.50;;;15.48;56.28
51123;BME280;37162;41.724;13.346;2023-01-31T23:17:38;97337.63;;;15.49;56.27
51123;BME280;37162;41.724;13.346;2023-01-31T23:20:09;97338.47;;;15.49;56.39
51123;BME280;37162;41.724;13.346;2023-01-31T23:22:36;97332.28;;;15.49;56.39
51123;BME280;37162;41.724;13.346;2023-01-31T23:25:07;97318.69;;;15.44;56.92
51123;BME280;37162;41.724;13.346;2023-01-31T23:27:33;97328.56;;;15.50;56.60
51123;BME280;37162;41.724;13.346;2023-01-31T23:29:59;97325.06;;;15.49;56.50
51123;BME280;37162;41.724;13.346;2023-01-31T23:32:24;97333.09;;;15.49;56.67
51123;BME280;37162;41.724;13.346;2023-01-31T23:34:50;97330.44;;;15.49;56.38
51123;BME280;37162;41.724;13.346;2023-01-31T23:37:17;97328.56;;;15.50;56.31
51123;BME280;37162;41.724;13.346;2023-01-31T23:39:42;97333.09;;;15.49;56.12
51123;BME280;37162;41.724;13.346;2023-01-31T23:42:09;97330.19;;;15.51;56.19
51123;BME280;37162;41.724;13.346;2023-01-31T23:44:34;97323.63;;;15.47;56.17
51123;BME280;37162;41.724;13.346;2023-01-31T23:47:00;97334.75;;;15.50;55.89
51123;BME280;37162;41.724;13.346;2023-01-31T23:49:25;97337.41;;;15.50;56.14
51123;BME280;37162;41.724;13.346;2023-01-31T23:51:51;97333.09;;;15.43;55.97
51123;BME280;37162;41.724;13.346;2023-01-31T23:54:16;97338.25;;;15.51;55.87
51123;BME280;37162;41.724;13.346;2023-01-31T23:56:41;97337.41;;;15.50;55.84
51123;BME280;37162;41.724;13.346;2023-01-31T23:59:07;97333.91;;;15.50;55.71
